createdAt,value
2022-08-07T00:00:30.593Z,17.67
2022-08-07T00:02:57.154Z,17.69
2022-08-07T00:05:24.607Z,17.22
2022-08-07T00:07:59.838Z,17.43
2022-08-07T00:10:30.703Z,17.62
2022-08-07T00:13:03.106Z,17.47
2022-08-07T00:15:46.431Z,17.61
2022-08-07T00:18:24.642Z,17.68
2022-08-07T00:20:57.600Z,17.71
2022-08-07T00:23:30.174Z,17.63
2022-08-07T00:26:00.644Z,17.64
2022-08-07T00:28:34.422Z,17.59
2022-08-07T00:31:12.319Z,17.51
2022-08-07T00:33:40.613Z,17.46
2022-08-07T00:36:08.207Z,17.59
2022-08-07T00:38:36.706Z,17.55
2022-08-07T00:41:10.066Z,17.43
2022-08-07T00:43:59.538Z,17.46
2022-08-07T00:46:28.029Z,17.38
2022-08-07T00:48:54.702Z,17.49
2022-08-07T00:51:21.556Z,17.36
2022-08-07T00:53:50.397Z,17.34
2022-08-07T00:56:23.287Z,17.27
2022-08-07T00:58:57.295Z,17.18
2022-08-07T01:01:24.167Z,17.32
2022-08-07T01:03:56.284Z,17.16
2022-08-07T01:06:28.751Z,17.16
2022-08-07T01:08:56.292Z,17.18
2022-08-07T01:12:09.677Z,17.03
2022-08-07T01:14:12.525Z,17.09
2022-08-07T01:16:47.196Z,17.05
2022-08-07T01:19:18.732Z,17.08
2022-08-07T01:21:49.756Z,17.08
2022-08-07T01:24:21.683Z,17.01
2022-08-07T01:26:52.290Z,16.91
2022-08-07T01:29:22.952Z,16.93
2022-08-07T01:31:50.677Z,16.94
2022-08-07T01:34:20.583Z,16.89
2022-08-07T01:36:57.892Z,16.88
2022-08-07T01:39:26.895Z,16.77
2022-08-07T01:42:36.983Z,16.51
2022-08-07T01:44:54.624Z,16.59
2022-08-07T01:48:17.891Z,16.64
2022-08-07T01:50:08.662Z,16.61
2022-08-07T01:52:36.986Z,16.59
2022-08-07T01:55:04.092Z,16.42
2022-08-07T01:58:06.112Z,16.50
2022-08-07T02:00:28.764Z,16.42
2022-08-07T02:03:19.222Z,16.36
2022-08-07T02:06:08.859Z,16.26
2022-08-07T02:08:50.483Z,16.27
2022-08-07T02:11:30.750Z,15.87
2022-08-07T02:14:07.949Z,16.00
2022-08-07T02:16:37.269Z,15.81
2022-08-07T02:20:04.045Z,15.69
2022-08-07T02:21:55.144Z,15.72
2022-08-07T02:24:22.946Z,15.81
2022-08-07T02:26:50.444Z,15.61
2022-08-07T02:29:21.945Z,15.82
2022-08-07T02:31:50.124Z,15.81
2022-08-07T02:34:18.124Z,15.75
2022-08-07T02:36:48.438Z,15.65
2022-08-07T02:39:43.383Z,15.74
2022-08-07T02:42:03.558Z,15.91
2022-08-07T02:44:37.476Z,15.73
2022-08-07T02:47:19.833Z,15.82
2022-08-07T02:49:56.048Z,15.72
2022-08-07T02:52:53.192Z,15.83
2022-08-07T02:55:28.751Z,15.71
2022-08-07T02:58:11.662Z,15.70
2022-08-07T03:00:39.453Z,15.78
2022-08-07T03:03:07.706Z,15.78
2022-08-07T03:05:40.559Z,15.82
2022-08-07T03:08:10.182Z,15.82
2022-08-07T03:10:40.955Z,15.72
2022-08-07T03:13:19.399Z,15.77
2022-08-07T03:15:55.925Z,15.53
2022-08-07T03:18:24.478Z,15.63
2022-08-07T03:21:01.630Z,15.61
2022-08-07T03:23:33.789Z,15.57
2022-08-07T03:26:21.290Z,15.76
2022-08-07T03:28:51.609Z,15.69
2022-08-07T03:31:19.502Z,15.60
2022-08-07T03:34:02.858Z,15.60
2022-08-07T03:36:30.900Z,15.69
2022-08-07T03:39:05.391Z,15.73
2022-08-07T03:41:41.838Z,15.62
2022-08-07T03:44:13.776Z,15.49
2022-08-07T03:47:13.441Z,15.47
2022-08-07T03:49:29.507Z,15.52
2022-08-07T03:52:01.797Z,15.35
2022-08-07T03:54:36.211Z,15.32
2022-08-07T03:58:08.819Z,15.25
2022-08-07T04:00:03.901Z,15.29
2022-08-07T04:02:30.981Z,15.36
2022-08-07T04:04:58.330Z,15.39
2022-08-07T04:07:25.585Z,15.20
2022-08-07T04:10:04.574Z,15.14
2022-08-07T04:12:32.636Z,15.16
2022-08-07T04:15:02.251Z,15.15
2022-08-07T04:18:56.603Z,15.04
2022-08-07T04:20:19.478Z,15.15
2022-08-07T04:22:53.785Z,15.10
2022-08-07T04:25:29.285Z,15.00
2022-08-07T04:27:59.246Z,15.05
2022-08-07T04:30:43.524Z,14.88
2022-08-07T04:33:13.780Z,14.92
2022-08-07T04:35:44.898Z,15.05
2022-08-07T04:38:17.272Z,15.04
2022-08-07T04:40:51.752Z,15.22
2022-08-07T04:43:21.592Z,15.10
2022-08-07T04:46:29.503Z,15.07
2022-08-07T04:49:25.615Z,15.19
2022-08-07T04:52:18.637Z,15.16
2022-08-07T04:54:54.250Z,15.32
2022-08-07T04:58:13.808Z,15.25
2022-08-07T05:00:30.009Z,15.35
2022-08-07T05:04:06.647Z,15.37
2022-08-07T05:06:43.431Z,15.46
2022-08-07T05:09:42.924Z,15.45
2022-08-07T05:12:26.523Z,15.57
2022-08-07T05:15:04.459Z,15.64
2022-08-07T05:17:51.805Z,15.69
2022-08-07T05:20:25.025Z,16.06
2022-08-07T05:22:55.271Z,16.15
2022-08-07T05:25:35.650Z,16.20
2022-08-07T05:28:20.305Z,16.41
2022-08-07T05:30:50.773Z,16.84
2022-08-07T05:33:21.312Z,17.48
2022-08-07T05:35:49.884Z,18.08
2022-08-07T05:38:59.873Z,18.56
2022-08-07T05:41:12.013Z,19.01
2022-08-07T05:43:49.612Z,19.40
2022-08-07T05:46:29.500Z,19.60
2022-08-07T05:48:58.354Z,19.79
2022-08-07T05:51:26.281Z,20.05
2022-08-07T05:54:09.257Z,19.88
2022-08-07T05:56:47.409Z,19.90
2022-08-07T05:59:19.465Z,20.43
2022-08-07T06:01:48.544Z,20.72
2022-08-07T06:04:17.443Z,20.46
2022-08-07T06:06:45.843Z,20.64
2022-08-07T06:09:15.345Z,20.86
2022-08-07T06:11:42.225Z,21.29
2022-08-07T06:14:12.211Z,21.40
2022-08-07T06:16:50.254Z,20.80
2022-08-07T06:19:51.817Z,21.05
2022-08-07T06:22:14.368Z,21.34
2022-08-07T06:24:55.610Z,21.11
2022-08-07T06:27:44.149Z,21.82
2022-08-07T06:30:32.454Z,21.92
2022-08-07T06:32:59.118Z,21.73
2022-08-07T06:35:39.166Z,21.76
2022-08-07T06:38:20.445Z,22.11
2022-08-07T06:40:50.204Z,22.36
2022-08-07T06:43:21.283Z,22.74
2022-08-07T06:45:49.051Z,22.68
2022-08-07T06:48:15.613Z,22.90
2022-08-07T06:50:52.120Z,22.30
2022-08-07T06:55:27.499Z,22.65
2022-08-07T06:56:15.326Z,22.86
2022-08-07T07:00:14.774Z,22.95
2022-08-07T07:01:33.097Z,23.23
2022-08-07T07:04:32.588Z,22.86
2022-08-07T07:07:01.165Z,23.37
2022-08-07T07:09:30.903Z,23.59
2022-08-07T07:12:18.077Z,23.14
2022-08-07T07:15:09.074Z,23.88
2022-08-07T07:17:53.275Z,23.72
2022-08-07T07:20:26.331Z,23.34
2022-08-07T07:24:08.775Z,23.52
2022-08-07T07:26:35.579Z,23.94
2022-08-07T07:28:48.289Z,23.73
2022-08-07T07:31:40.088Z,24.06
2022-08-07T07:34:15.595Z,24.45
2022-08-07T07:36:43.219Z,24.22
2022-08-07T07:39:16.150Z,23.71
2022-08-07T07:42:01.805Z,23.92
2022-08-07T07:44:36.476Z,23.89
2022-08-07T07:47:14.149Z,23.59
2022-08-07T07:50:33.276Z,23.85
2022-08-07T07:52:38.712Z,23.57
2022-08-07T07:55:08.152Z,22.84
2022-08-07T07:57:51.574Z,22.36
2022-08-07T08:00:31.437Z,23.09
2022-08-07T08:03:08.233Z,23.47
2022-08-07T08:05:50.846Z,23.23
2022-08-07T08:08:34.940Z,23.48
2022-08-07T08:11:13.859Z,23.65
2022-08-07T08:13:54.189Z,23.65
2022-08-07T08:16:29.955Z,23.95
2022-08-07T08:18:58.741Z,24.07
2022-08-07T08:22:02.523Z,23.58
2022-08-07T08:25:04.676Z,23.87
2022-08-07T08:27:39.298Z,24.19
2022-08-07T08:30:14.291Z,24.11
2022-08-07T08:33:00.473Z,24.02
2022-08-07T08:35:39.361Z,24.26
2022-08-07T08:38:18.417Z,24.30
2022-08-07T08:41:02.735Z,24.16
2022-08-07T08:43:42.925Z,24.69
2022-08-07T08:46:32.095Z,24.88
2022-08-07T08:49:33.602Z,24.89
2022-08-07T08:52:16.682Z,25.03
2022-08-07T08:54:56.703Z,25.04
2022-08-07T08:57:33.919Z,25.02
2022-08-07T09:00:09.207Z,24.93
2022-08-07T09:03:07.556Z,25.43
2022-08-07T09:05:46.926Z,25.38
2022-08-07T09:08:46.792Z,25.38
2022-08-07T09:11:43.695Z,25.65
2022-08-07T09:14:20.756Z,25.88
2022-08-07T09:17:24.486Z,25.94
2022-08-07T09:20:34.652Z,25.51
2022-08-07T09:24:33.732Z,25.67
2022-08-07T09:26:30.307Z,25.86
2022-08-07T09:30:03.415Z,25.97
2022-08-07T09:32:05.783Z,25.92
2022-08-07T09:36:04.245Z,26.28
2022-08-07T09:38:10.356Z,26.04
2022-08-07T09:40:46.703Z,26.28
2022-08-07T09:44:03.485Z,26.44
2022-08-07T09:47:50.137Z,26.79
2022-08-07T09:50:00.573Z,26.34
2022-08-07T09:52:53.925Z,26.33
2022-08-07T09:56:02.448Z,25.89
2022-08-07T09:58:48.492Z,26.35
2022-08-07T10:01:53.044Z,26.76
2022-08-07T10:04:47.563Z,26.88
2022-08-07T10:07:53.411Z,26.77
2022-08-07T10:11:17.080Z,26.77
2022-08-07T10:14:01.026Z,26.81
2022-08-07T10:16:34.681Z,27.15
2022-08-07T10:19:42.867Z,26.91
2022-08-07T10:22:33.771Z,27.27
2022-08-07T10:25:07.863Z,27.49
2022-08-07T10:27:53.114Z,27.60
2022-08-07T10:30:41.286Z,27.43
2022-08-07T10:34:14.179Z,27.43
2022-08-07T10:36:36.266Z,27.68
2022-08-07T10:39:41.353Z,27.51
2022-08-07T10:42:36.632Z,27.70
2022-08-07T10:45:44.038Z,27.79
2022-08-07T10:48:17.877Z,27.73
2022-08-07T10:50:59.577Z,27.27
2022-08-07T10:53:45.576Z,27.49
2022-08-07T10:56:30.988Z,27.16
2022-08-07T10:59:22.114Z,27.36
2022-08-07T11:02:11.873Z,27.71
2022-08-07T11:04:58.971Z,27.28
2022-08-07T11:08:06.640Z,27.37
2022-08-07T11:11:00.067Z,27.76
2022-08-07T11:14:46.081Z,27.78
2022-08-07T11:16:54.820Z,27.74
2022-08-07T11:19:29.377Z,27.88
2022-08-07T11:22:05.247Z,28.15
2022-08-07T11:24:52.035Z,28.07
2022-08-07T11:28:00.887Z,27.75
2022-08-07T11:30:19.295Z,27.53
2022-08-07T11:33:14.020Z,27.88
2022-08-07T11:36:00.776Z,28.28
2022-08-07T11:38:33.594Z,28.09
2022-08-07T11:42:00.105Z,28.05
2022-08-07T11:44:25.018Z,27.91
2022-08-07T11:46:55.547Z,28.06
2022-08-07T11:50:18.690Z,28.65
2022-08-07T11:52:47.876Z,28.54
2022-08-07T11:56:15.565Z,28.36
2022-08-07T12:00:07.651Z,28.45
2022-08-07T12:02:20.685Z,28.63
2022-08-07T12:05:41.454Z,28.93
2022-08-07T12:08:26.117Z,28.55
2022-08-07T12:11:20.226Z,28.84
2022-08-07T12:13:58.043Z,29.36
2022-08-07T12:16:30.434Z,29.14
2022-08-07T12:20:04.950Z,28.44
2022-08-07T12:22:58.433Z,28.78
2022-08-07T12:26:05.376Z,29.20
2022-08-07T12:28:49.852Z,29.33
2022-08-07T12:31:53.316Z,28.39
2022-08-07T12:34:30.522Z,28.79
2022-08-07T12:36:58.794Z,29.20
2022-08-07T12:39:42.749Z,29.43
2022-08-07T12:42:13.280Z,29.20
2022-08-07T12:44:43.024Z,28.95
2022-08-07T12:47:21.740Z,29.16
2022-08-07T12:50:38.513Z,28.71
2022-08-07T12:52:59.257Z,29.24
2022-08-07T12:56:02.331Z,28.01
2022-08-07T12:58:35.512Z,28.42
2022-08-07T13:01:21.119Z,28.96
2022-08-07T13:04:32.647Z,28.96
2022-08-07T13:08:13.005Z,29.35
2022-08-07T13:10:37.992Z,28.73
2022-08-07T13:13:48.873Z,28.33
2022-08-07T13:16:41.139Z,28.65
2022-08-07T13:19:22.020Z,29.36
2022-08-07T13:22:20.008Z,29.03
2022-08-07T13:25:00.555Z,29.00
2022-08-07T13:28:11.205Z,29.10
2022-08-07T13:30:41.325Z,29.53
2022-08-07T13:34:30.241Z,29.71
2022-08-07T13:36:41.795Z,29.46
2022-08-07T13:39:28.518Z,29.23
2022-08-07T13:42:14.612Z,29.73
2022-08-07T13:45:20.986Z,29.55
2022-08-07T13:48:04.319Z,29.71
2022-08-07T13:50:34.120Z,29.20
2022-08-07T13:53:21.721Z,29.61
2022-08-07T13:55:54.917Z,29.93
2022-08-07T13:58:43.268Z,29.96
2022-08-07T14:01:25.975Z,30.15
2022-08-07T14:04:07.633Z,29.73
2022-08-07T14:06:38.370Z,29.38
2022-08-07T14:09:06.338Z,29.02
2022-08-07T14:11:53.294Z,28.72
2022-08-07T14:14:39.576Z,29.27
2022-08-07T14:17:32.042Z,28.95
2022-08-07T14:20:41.712Z,29.04
2022-08-07T14:22:53.118Z,29.28
2022-08-07T14:25:25.317Z,29.10
2022-08-07T14:28:10.986Z,29.43
2022-08-07T14:30:40.711Z,29.19
2022-08-07T14:33:08.221Z,29.79
2022-08-07T14:35:45.378Z,29.44
2022-08-07T14:38:30.206Z,29.29
2022-08-07T14:41:03.859Z,29.31
2022-08-07T14:43:57.574Z,29.34
2022-08-07T14:46:31.238Z,29.62
2022-08-07T14:48:59.134Z,29.76
2022-08-07T14:52:04.591Z,29.99
2022-08-07T14:54:35.846Z,29.17
2022-08-07T14:57:11.459Z,29.54
2022-08-07T15:00:03.150Z,29.19
2022-08-07T15:02:34.576Z,29.74
2022-08-07T15:05:02.173Z,29.36
2022-08-07T15:07:47.454Z,29.43
2022-08-07T15:10:26.599Z,29.28
2022-08-07T15:12:59.115Z,29.50
2022-08-07T15:15:34.526Z,29.56
2022-08-07T15:18:14.557Z,29.36
2022-08-07T15:20:59.432Z,29.45
2022-08-07T15:25:03.147Z,29.82
2022-08-07T15:26:28.793Z,29.73
2022-08-07T15:28:59.596Z,29.94
2022-08-07T15:32:01.363Z,29.82
2022-08-07T15:34:36.893Z,30.09
2022-08-07T15:39:57.740Z,29.57
2022-08-07T15:42:44.271Z,30.05
2022-08-07T15:45:19.424Z,29.92
2022-08-07T15:48:01.927Z,29.58
2022-08-07T15:51:01.417Z,29.80
2022-08-07T15:53:53.057Z,30.02
2022-08-07T15:56:24.111Z,29.62
2022-08-07T15:58:58.766Z,29.68
2022-08-07T16:01:38.802Z,29.94
2022-08-07T16:04:14.620Z,29.87
2022-08-07T16:06:59.529Z,29.45
2022-08-07T16:09:41.960Z,29.64
2022-08-07T16:12:33.552Z,29.32
2022-08-07T16:15:57.624Z,29.09
2022-08-07T16:18:49.411Z,29.31
2022-08-07T16:21:56.874Z,29.12
2022-08-07T16:24:34.683Z,29.45
2022-08-07T16:27:19.163Z,29.17
2022-08-07T16:30:11.803Z,29.30
2022-08-07T16:32:54.570Z,28.97
2022-08-07T16:35:56.979Z,29.08
2022-08-07T16:39:00.037Z,28.66
2022-08-07T16:41:55.724Z,28.92
2022-08-07T16:45:14.792Z,28.71
2022-08-07T16:47:57.102Z,28.65
2022-08-07T16:51:20.715Z,28.60
2022-08-07T16:54:06.755Z,28.45
2022-08-07T16:56:53.515Z,28.79
2022-08-07T16:59:46.861Z,28.81
2022-08-07T17:02:51.689Z,28.41
2022-08-07T17:06:19.445Z,28.74
2022-08-07T17:09:14.091Z,28.60
2022-08-07T17:12:44.500Z,28.85
2022-08-07T17:14:59.877Z,28.54
2022-08-07T17:17:48.271Z,28.44
2022-08-07T17:20:37.818Z,28.29
2022-08-07T17:23:22.671Z,27.76
2022-08-07T17:26:23.233Z,27.84
2022-08-07T17:30:13.009Z,27.86
2022-08-07T17:32:30.985Z,27.72
2022-08-07T17:35:51.020Z,27.52
2022-08-07T17:38:11.379Z,27.67
2022-08-07T17:42:00.707Z,27.55
2022-08-07T17:44:50.346Z,27.54
2022-08-07T17:47:38.176Z,27.16
2022-08-07T17:50:18.893Z,27.23
2022-08-07T17:53:55.720Z,27.33
2022-08-07T17:56:14.925Z,27.28
2022-08-07T17:58:52.972Z,26.95
2022-08-07T18:01:37.133Z,27.06
2022-08-07T18:04:31.076Z,26.81
2022-08-07T18:07:19.991Z,26.79
2022-08-07T18:10:06.273Z,26.60
2022-08-07T18:13:11.510Z,26.52
2022-08-07T18:16:10.270Z,26.38
2022-08-07T18:21:03.742Z,26.26
2022-08-07T18:21:58.337Z,26.27
2022-08-07T18:24:28.433Z,26.17
2022-08-07T18:27:17.310Z,26.13
2022-08-07T18:30:05.886Z,26.22
2022-08-07T18:33:10.842Z,26.14
2022-08-07T18:35:57.539Z,25.97
2022-08-07T18:38:55.412Z,26.00
2022-08-07T18:42:32.604Z,25.90
2022-08-07T18:45:43.907Z,25.88
2022-08-07T18:48:10.245Z,25.72
2022-08-07T18:51:07.035Z,25.68
2022-08-07T18:53:55.702Z,25.58
2022-08-07T18:56:58.358Z,25.50
2022-08-07T18:59:47.961Z,25.34
2022-08-07T19:02:36.888Z,25.17
2022-08-07T19:05:22.218Z,24.98
2022-08-07T19:08:03.926Z,24.88
2022-08-07T19:10:51.822Z,24.87
2022-08-07T19:13:50.114Z,24.86
2022-08-07T19:17:06.351Z,24.59
2022-08-07T19:19:54.552Z,24.43
2022-08-07T19:22:31.226Z,24.17
2022-08-07T19:24:58.813Z,24.24
2022-08-07T19:29:02.825Z,23.99
2022-08-07T19:31:00.138Z,23.83
2022-08-07T19:33:12.994Z,23.69
2022-08-07T19:35:43.847Z,23.71
2022-08-07T19:38:16.087Z,23.50
2022-08-07T19:40:50.570Z,23.48
2022-08-07T19:43:43.174Z,23.31
2022-08-07T19:46:10.174Z,23.18
2022-08-07T19:48:44.173Z,23.04
2022-08-07T19:51:20.079Z,22.86
2022-08-07T19:54:31.667Z,22.81
2022-08-07T19:58:02.348Z,22.59
2022-08-07T19:59:39.690Z,22.30
2022-08-07T20:02:15.481Z,22.33
2022-08-07T20:04:49.037Z,22.26
2022-08-07T20:07:23.716Z,22.11
2022-08-07T20:10:36.796Z,22.10
2022-08-07T20:12:51.922Z,22.01
2022-08-07T20:15:23.243Z,22.16
2022-08-07T20:18:01.755Z,22.03
2022-08-07T20:20:31.964Z,22.03
2022-08-07T20:23:22.833Z,21.90
2022-08-07T20:25:53.146Z,21.84
2022-08-07T20:28:20.645Z,21.82
2022-08-07T20:30:56.492Z,21.84
2022-08-07T20:33:36.607Z,21.80
2022-08-07T20:36:06.861Z,21.73
2022-08-07T20:38:34.265Z,21.70
2022-08-07T20:41:03.937Z,21.63
2022-08-07T20:43:33.134Z,21.65
2022-08-07T20:46:28.848Z,21.64
2022-08-07T20:49:54.561Z,21.62
2022-08-07T20:51:40.446Z,21.46
2022-08-07T20:54:29.700Z,21.51
2022-08-07T20:57:00.553Z,21.59
2022-08-07T21:00:06.701Z,21.56
2022-08-07T21:02:41.367Z,21.61
2022-08-07T21:05:43.085Z,21.53
2022-08-07T21:08:16.375Z,21.47
2022-08-07T21:10:49.049Z,21.57
2022-08-07T21:13:24.637Z,21.57
2022-08-07T21:16:09.075Z,21.58
2022-08-07T21:18:41.270Z,21.54
2022-08-07T21:21:16.140Z,21.58
2022-08-07T21:23:50.870Z,21.60
2022-08-07T21:26:47.851Z,21.48
2022-08-07T21:29:39.697Z,21.36
2022-08-07T21:32:47.575Z,21.36
2022-08-07T21:35:34.847Z,21.00
2022-08-07T21:38:27.648Z,20.91
2022-08-07T21:41:10.107Z,20.97
2022-08-07T21:43:56.380Z,20.89
2022-08-07T21:46:46.155Z,20.88
2022-08-07T21:50:02.745Z,20.74
2022-08-07T21:52:58.677Z,20.64
2022-08-07T21:55:36.528Z,20.46
2022-08-07T21:58:12.369Z,20.50
2022-08-07T22:01:05.176Z,20.48
2022-08-07T22:03:44.344Z,20.48
2022-08-07T22:06:29.960Z,20.37
2022-08-07T22:09:08.419Z,20.32
2022-08-07T22:12:05.850Z,20.26
2022-08-07T22:14:36.081Z,20.22
2022-08-07T22:17:04.219Z,20.11
2022-08-07T22:19:36.938Z,20.10
2022-08-07T22:22:28.813Z,19.92
2022-08-07T22:25:11.080Z,19.88
2022-08-07T22:28:30.175Z,20.00
2022-08-07T22:31:59.368Z,19.96
2022-08-07T22:34:15.156Z,19.98
2022-08-07T22:36:53.433Z,19.80
2022-08-07T22:39:28.921Z,19.84
2022-08-07T22:42:19.366Z,19.97
2022-08-07T22:44:58.003Z,19.88
2022-08-07T22:47:38.139Z,19.83
2022-08-07T22:50:29.061Z,19.76
2022-08-07T22:53:05.880Z,19.84
2022-08-07T22:55:46.049Z,19.48
2022-08-07T22:58:33.530Z,19.66
2022-08-07T23:01:18.570Z,19.56
2022-08-07T23:04:00.289Z,19.60
2022-08-07T23:06:55.254Z,19.27
2022-08-07T23:10:03.733Z,19.18
2022-08-07T23:12:34.390Z,19.03
2022-08-07T23:16:04.564Z,19.06
2022-08-07T23:18:18.300Z,19.06
2022-08-07T23:21:00.552Z,18.97
2022-08-07T23:24:05.260Z,19.13
2022-08-07T23:26:57.849Z,19.03
2022-08-07T23:30:37.031Z,18.96
2022-08-07T23:34:35.633Z,19.10
2022-08-07T23:36:06.023Z,18.73
2022-08-07T23:38:42.711Z,18.76
2022-08-07T23:41:33.467Z,18.71
2022-08-07T23:44:29.573Z,18.76
2022-08-07T23:47:46.706Z,18.75
2022-08-07T23:50:29.666Z,18.61
2022-08-07T23:53:21.303Z,18.34
2022-08-07T23:56:15.704Z,18.36
